sensor_id;sensor_type;location;lat;lon;timestamp;P1;durP1;ratioP1;P2;durP2;ratioP2
54193;SDS011;40102;50.906;6.972;2023-06-10T00:00:12;6.13;;;5.30;;
54193;SDS011;40102;50.906;6.972;2023-06-10T00:02:40;6.18;;;5.35;;
54193;SDS011;40102;50.906;6.972;2023-06-10T00:05:06;6.07;;;5.47;;
54193;SDS011;40102;50.906;6.972;2023-06-10T00:07:32;7.50;;;5.82;;
54193;SDS011;40102;50.906;6.972;2023-06-10T00:09:58;6.75;;;5.15;;
54193;SDS011;40102;50.906;6.972;2023-06-10T00:12:24;6.13;;;5.45;;
54193;SDS011;40102;50.906;6.972;2023-06-10T00:14:49;5.97;;;5.38;;
54193;SDS011;40102;50.906;6.972;2023-06-10T00:17:16;6.57;;;5.43;;
54193;SDS011;40102;50.906;6.972;2023-06-10T00:19:42;9.40;;;5.45;;
54193;SDS011;40102;50.906;6.972;2023-06-10T00:22:08;6.22;;;5.57;;
54193;SDS011;40102;50.906;6.972;2023-06-10T00:24:35;5.97;;;5.38;;
54193;SDS011;40102;50.906;6.972;2023-06-10T00:27:01;6.18;;;5.40;;
54193;SDS011;40102;50.906;6.972;2023-06-10T00:29:26;6.03;;;5.13;;
54193;SDS011;40102;50.906;6.972;2023-06-10T00:31:51;6.15;;;5.53;;
54193;SDS011;40102;50.906;6.972;2023-06-10T00:34:18;6.13;;;5.53;;
54193;SDS011;40102;50.906;6.972;2023-06-10T00:36:44;6.05;;;5.28;;
54193;SDS011;40102;50.906;6.972;2023-06-10T00:39:09;6.60;;;5.30;;
54193;SDS011;40102;50.906;6.972;2023-06-10T00:41:34;6.85;;;5.50;;
54193;SDS011;40102;50.906;6.972;2023-06-10T00:44:00;6.00;;;5.40;;
54193;SDS011;40102;50.906;6.972;2023-06-10T00:46:25;6.20;;;5.55;;
54193;SDS011;40102;50.906;6.972;2023-06-10T00:48:51;6.60;;;5.90;;
54193;SDS011;40102;50.906;6.972;2023-06-10T00:51:17;9.73;;;6.03;;
54193;SDS011;40102;50.906;6.972;2023-06-10T00:53:44;5.63;;;5.13;;
54193;SDS011;40102;50.906;6.972;2023-06-10T00:56:09;6.20;;;5.60;;
54193;SDS011;40102;50.906;6.972;2023-06-10T00:58:35;6.20;;;5.60;;
54193;SDS011;40102;50.906;6.972;2023-06-10T01:01:01;6.13;;;5.53;;
54193;SDS011;40102;50.906;6.972;2023-06-10T01:03:27;6.47;;;5.85;;
54193;SDS011;40102;50.906;6.972;2023-06-10T01:08:57;6.30;;;5.70;;
54193;SDS011;40102;50.906;6.972;2023-06-10T01:11:36;7.03;;;6.00;;
54193;SDS011;40102;50.906;6.972;2023-06-10T01:14:17;6.97;;;6.07;;
54193;SDS011;40102;50.906;6.972;2023-06-10T01:16:43;5.95;;;5.35;;
54193;SDS011;40102;50.906;6.972;2023-06-10T01:19:11;7.10;;;5.97;;
54193;SDS011;40102;50.906;6.972;2023-06-10T01:21:37;7.85;;;5.55;;
54193;SDS011;40102;50.906;6.972;2023-06-10T01:24:04;7.43;;;6.10;;
54193;SDS011;40102;50.906;6.972;2023-06-10T01:26:33;6.72;;;6.03;;
54193;SDS011;40102;50.906;6.972;2023-06-10T01:29:00;6.97;;;5.63;;
54193;SDS011;40102;50.906;6.972;2023-06-10T01:31:47;8.32;;;5.85;;
54193;SDS011;40102;50.906;6.972;2023-06-10T01:34:16;6.72;;;6.13;;
54193;SDS011;40102;50.906;6.972;2023-06-10T01:36:44;8.32;;;6.30;;
54193;SDS011;40102;50.906;6.972;2023-06-10T01:39:12;6.47;;;5.85;;
54193;SDS011;40102;50.906;6.972;2023-06-10T01:41:40;9.13;;;6.22;;
54193;SDS011;40102;50.906;6.972;2023-06-10T01:44:05;7.22;;;6.53;;
54193;SDS011;40102;50.906;6.972;2023-06-10T01:46:31;7.40;;;6.10;;
54193;SDS011;40102;50.906;6.972;2023-06-10T01:48:56;6.72;;;5.93;;
54193;SDS011;40102;50.906;6.972;2023-06-10T01:51:21;9.90;;;6.00;;
54193;SDS011;40102;50.906;6.972;2023-06-10T01:53:47;6.15;;;5.55;;
54193;SDS011;40102;50.906;6.972;2023-06-10T01:56:12;6.55;;;5.95;;
54193;SDS011;40102;50.906;6.972;2023-06-10T01:58:42;7.10;;;5.97;;
54193;SDS011;40102;50.906;6.972;2023-06-10T02:01:08;9.00;;;6.28;;
54193;SDS011;40102;50.906;6.972;2023-06-10T02:03:34;6.75;;;5.90;;
54193;SDS011;40102;50.906;6.972;2023-06-10T02:05:59;8.32;;;6.20;;
54193;SDS011;40102;50.906;6.972;2023-06-10T02:08:25;6.85;;;6.15;;
54193;SDS011;40102;50.906;6.972;2023-06-10T02:10:52;7.03;;;6.20;;
54193;SDS011;40102;50.906;6.972;2023-06-10T02:13:17;6.90;;;6.15;;
54193;SDS011;40102;50.906;6.972;2023-06-10T02:15:43;6.70;;;5.93;;
54193;SDS011;40102;50.906;6.972;2023-06-10T02:18:08;6.93;;;6.22;;
54193;SDS011;40102;50.906;6.972;2023-06-10T02:20:35;8.13;;;6.05;;
54193;SDS011;40102;50.906;6.972;2023-06-10T02:23:00;6.78;;;6.03;;
54193;SDS011;40102;50.906;6.972;2023-06-10T02:25:25;6.38;;;5.78;;
54193;SDS011;40102;50.906;6.972;2023-06-10T02:27:51;6.82;;;5.80;;
54193;SDS011;40102;50.906;6.972;2023-06-10T02:30:16;7.13;;;6.22;;
54193;SDS011;40102;50.906;6.972;2023-06-10T02:32:41;6.45;;;5.75;;
54193;SDS011;40102;50.906;6.972;2023-06-10T02:35:07;8.57;;;6.47;;
54193;SDS011;40102;50.906;6.972;2023-06-10T02:37:32;7.47;;;6.05;;
54193;SDS011;40102;50.906;6.972;2023-06-10T02:39:57;7.03;;;5.90;;
54193;SDS011;40102;50.906;6.972;2023-06-10T02:42:23;6.63;;;6.03;;
54193;SDS011;40102;50.906;6.972;2023-06-10T02:44:48;7.18;;;6.13;;
54193;SDS011;40102;50.906;6.972;2023-06-10T02:47:13;6.88;;;6.13;;
54193;SDS011;40102;50.906;6.972;2023-06-10T02:49:38;6.95;;;6.28;;
54193;SDS011;40102;50.906;6.972;2023-06-10T02:52:05;7.57;;;6.03;;
54193;SDS011;40102;50.906;6.972;2023-06-10T02:54:32;7.75;;;6.15;;
54193;SDS011;40102;50.906;6.972;2023-06-10T02:56:57;7.63;;;6.13;;
54193;SDS011;40102;50.906;6.972;2023-06-10T02:59:22;6.70;;;6.00;;
54193;SDS011;40102;50.906;6.972;2023-06-10T03:01:48;7.63;;;6.53;;
54193;SDS011;40102;50.906;6.972;2023-06-10T03:04:13;7.35;;;6.65;;
54193;SDS011;40102;50.906;6.972;2023-06-10T03:06:39;8.07;;;6.80;;
54193;SDS011;40102;50.906;6.972;2023-06-10T03:09:06;6.85;;;6.03;;
54193;SDS011;40102;50.906;6.972;2023-06-10T03:11:32;7.18;;;6.18;;
54193;SDS011;40102;50.906;6.972;2023-06-10T03:13:58;9.95;;;6.65;;
54193;SDS011;40102;50.906;6.972;2023-06-10T03:16:23;6.93;;;6.22;;
54193;SDS011;40102;50.906;6.972;2023-06-10T03:18:50;6.70;;;6.10;;
54193;SDS011;40102;50.906;6.972;2023-06-10T03:21:15;6.78;;;6.07;;
54193;SDS011;40102;50.906;6.972;2023-06-10T03:23:41;6.85;;;6.05;;
54193;SDS011;40102;50.906;6.972;2023-06-10T03:26:06;8.55;;;6.60;;
54193;SDS011;40102;50.906;6.972;2023-06-10T03:28:32;6.85;;;6.15;;
54193;SDS011;40102;50.906;6.972;2023-06-10T03:30:57;6.28;;;5.68;;
54193;SDS011;40102;50.906;6.972;2023-06-10T03:33:23;7.47;;;6.32;;
54193;SDS011;40102;50.906;6.972;2023-06-10T03:35:48;7.45;;;6.50;;
54193;SDS011;40102;50.906;6.972;2023-06-10T03:38:14;7.30;;;6.10;;
54193;SDS011;40102;50.906;6.972;2023-06-10T03:40:39;7.38;;;6.28;;
54193;SDS011;40102;50.906;6.972;2023-06-10T03:43:05;8.30;;;6.47;;
54193;SDS011;40102;50.906;6.972;2023-06-10T03:45:30;7.18;;;6.47;;
54193;SDS011;40102;50.906;6.972;2023-06-10T03:47:57;8.10;;;6.15;;
54193;SDS011;40102;50.906;6.972;2023-06-10T03:50:23;7.93;;;6.35;;
54193;SDS011;40102;50.906;6.972;2023-06-10T03:52:49;8.57;;;6.45;;
54193;SDS011;40102;50.906;6.972;2023-06-10T03:55:15;8.50;;;6.22;;
54193;SDS011;40102;50.906;6.972;2023-06-10T03:57:41;7.90;;;6.47;;
54193;SDS011;40102;50.906;6.972;2023-06-10T04:00:07;9.43;;;6.18;;
54193;SDS011;40102;50.906;6.972;2023-06-10T04:02:36;6.85;;;6.15;;
54193;SDS011;40102;50.906;6.972;2023-06-10T04:05:01;7.65;;;6.07;;
54193;SDS011;40102;50.906;6.972;2023-06-10T04:07:27;7.30;;;6.47;;
54193;SDS011;40102;50.906;6.972;2023-06-10T04:09:53;8.93;;;6.82;;
54193;SDS011;40102;50.906;6.972;2023-06-10T04:12:19;7.55;;;6.18;;
54193;SDS011;40102;50.906;6.972;2023-06-10T04:14:44;6.68;;;6.07;;
54193;SDS011;40102;50.906;6.972;2023-06-10T04:17:09;7.30;;;6.18;;
54193;SDS011;40102;50.906;6.972;2023-06-10T04:19:35;6.97;;;6.28;;
54193;SDS011;40102;50.906;6.972;2023-06-10T04:22:00;6.95;;;6.25;;
54193;SDS011;40102;50.906;6.972;2023-06-10T04:24:27;7.53;;;6.70;;
54193;SDS011;40102;50.906;6.972;2023-06-10T04:26:52;9.48;;;6.35;;
54193;SDS011;40102;50.906;6.972;2023-06-10T04:29:17;7.15;;;6.15;;
54193;SDS011;40102;50.906;6.972;2023-06-10T04:31:42;10.82;;;7.15;;
54193;SDS011;40102;50.906;6.972;2023-06-10T04:34:08;7.70;;;6.65;;
54193;SDS011;40102;50.906;6.972;2023-06-10T04:36:33;7.45;;;6.32;;
54193;SDS011;40102;50.906;6.972;2023-06-10T04:38:58;7.28;;;6.50;;
54193;SDS011;40102;50.906;6.972;2023-06-10T04:41:24;7.25;;;6.15;;
54193;SDS011;40102;50.906;6.972;2023-06-10T04:43:50;6.78;;;6.05;;
54193;SDS011;40102;50.906;6.972;2023-06-10T04:46:16;7.28;;;6.28;;
54193;SDS011;40102;50.906;6.972;2023-06-10T04:48:41;8.80;;;6.68;;
54193;SDS011;40102;50.906;6.972;2023-06-10T04:51:07;8.15;;;6.30;;
54193;SDS011;40102;50.906;6.972;2023-06-10T04:53:32;6.82;;;6.13;;
54193;SDS011;40102;50.906;6.972;2023-06-10T04:55:58;6.72;;;6.03;;
54193;SDS011;40102;50.906;6.972;2023-06-10T04:58:23;7.72;;;6.13;;
54193;SDS011;40102;50.906;6.972;2023-06-10T05:00:49;6.97;;;5.78;;
54193;SDS011;40102;50.906;6.972;2023-06-10T05:03:14;7.22;;;6.05;;
54193;SDS011;40102;50.906;6.972;2023-06-10T05:05:40;7.20;;;6.50;;
54193;SDS011;40102;50.906;6.972;2023-06-10T05:08:05;6.63;;;5.95;;
54193;SDS011;40102;50.906;6.972;2023-06-10T05:10:30;6.82;;;6.13;;
54193;SDS011;40102;50.906;6.972;2023-06-10T05:12:57;7.88;;;5.88;;
54193;SDS011;40102;50.906;6.972;2023-06-10T05:15:23;6.85;;;6.15;;
54193;SDS011;40102;50.906;6.972;2023-06-10T05:17:51;6.53;;;5.75;;
54193;SDS011;40102;50.906;6.972;2023-06-10T05:20:17;6.45;;;5.68;;
54193;SDS011;40102;50.906;6.972;2023-06-10T05:22:43;5.88;;;5.28;;
54193;SDS011;40102;50.906;6.972;2023-06-10T05:25:09;7.95;;;5.45;;
54193;SDS011;40102;50.906;6.972;2023-06-10T05:27:35;6.88;;;5.38;;
54193;SDS011;40102;50.906;6.972;2023-06-10T05:30:00;6.07;;;5.03;;
54193;SDS011;40102;50.906;6.972;2023-06-10T05:32:27;5.43;;;4.93;;
54193;SDS011;40102;50.906;6.972;2023-06-10T05:34:52;5.78;;;5.20;;
54193;SDS011;40102;50.906;6.972;2023-06-10T05:37:18;5.47;;;4.97;;
54193;SDS011;40102;50.906;6.972;2023-06-10T05:39:43;5.25;;;4.75;;
54193;SDS011;40102;50.906;6.972;2023-06-10T05:42:09;6.25;;;4.85;;
54193;SDS011;40102;50.906;6.972;2023-06-10T05:44:35;5.90;;;4.85;;
54193;SDS011;40102;50.906;6.972;2023-06-10T05:47:00;6.30;;;5.20;;
54193;SDS011;40102;50.906;6.972;2023-06-10T05:49:26;5.82;;;4.88;;
54193;SDS011;40102;50.906;6.972;2023-06-10T05:51:52;5.50;;;4.82;;
54193;SDS011;40102;50.906;6.972;2023-06-10T05:54:17;5.53;;;4.85;;
54193;SDS011;40102;50.906;6.972;2023-06-10T05:56:43;5.90;;;5.30;;
54193;SDS011;40102;50.906;6.972;2023-06-10T05:59:09;5.47;;;4.88;;
54193;SDS011;40102;50.906;6.972;2023-06-10T06:01:34;5.75;;;5.05;;
54193;SDS011;40102;50.906;6.972;2023-06-10T06:03:59;6.80;;;4.70;;
54193;SDS011;40102;50.906;6.972;2023-06-10T06:06:25;5.60;;;4.57;;
54193;SDS011;40102;50.906;6.972;2023-06-10T06:08:50;5.07;;;4.55;;
54193;SDS011;40102;50.906;6.972;2023-06-10T06:11:19;4.88;;;4.38;;
54193;SDS011;40102;50.906;6.972;2023-06-10T06:13:44;5.20;;;4.70;;
54193;SDS011;40102;50.906;6.972;2023-06-10T06:16:10;4.65;;;4.20;;
54193;SDS011;40102;50.906;6.972;2023-06-10T06:18:35;4.93;;;4.40;;
54193;SDS011;40102;50.906;6.972;2023-06-10T06:21:00;5.70;;;4.78;;
54193;SDS011;40102;50.906;6.972;2023-06-10T06:23:26;5.25;;;4.50;;
54193;SDS011;40102;50.906;6.972;2023-06-10T06:25:51;4.97;;;4.45;;
54193;SDS011;40102;50.906;6.972;2023-06-10T06:28:17;4.90;;;4.40;;
54193;SDS011;40102;50.906;6.972;2023-06-10T06:30:43;5.28;;;4.32;;
54193;SDS011;40102;50.906;6.972;2023-06-10T06:33:09;5.38;;;4.57;;
54193;SDS011;40102;50.906;6.972;2023-06-10T06:35:35;5.50;;;4.30;;
54193;SDS011;40102;50.906;6.972;2023-06-10T06:38:00;5.13;;;4.38;;
54193;SDS011;40102;50.906;6.972;2023-06-10T06:40:26;5.38;;;4.45;;
54193;SDS011;40102;50.906;6.972;2023-06-10T06:42:51;3.97;;;3.67;;
54193;SDS011;40102;50.906;6.972;2023-06-10T06:45:16;6.13;;;4.60;;
54193;SDS011;40102;50.906;6.972;2023-06-10T06:47:42;4.63;;;4.15;;
54193;SDS011;40102;50.906;6.972;2023-06-10T06:50:08;5.80;;;4.72;;
54193;SDS011;40102;50.906;6.972;2023-06-10T06:52:34;6.53;;;4.90;;
54193;SDS011;40102;50.906;6.972;2023-06-10T06:55:00;5.82;;;4.80;;
54193;SDS011;40102;50.906;6.972;2023-06-10T06:57:25;7.22;;;5.00;;
54193;SDS011;40102;50.906;6.972;2023-06-10T06:59:50;8.65;;;5.25;;
54193;SDS011;40102;50.906;6.972;2023-06-10T07:02:16;7.28;;;5.05;;
54193;SDS011;40102;50.906;6.972;2023-06-10T07:04:41;10.85;;;5.25;;
54193;SDS011;40102;50.906;6.972;2023-06-10T07:07:07;6.32;;;5.30;;
54193;SDS011;40102;50.906;6.972;2023-06-10T07:09:36;7.22;;;5.13;;
54193;SDS011;40102;50.906;6.972;2023-06-10T07:12:02;5.65;;;4.80;;
54193;SDS011;40102;50.906;6.972;2023-06-10T07:14:27;6.55;;;5.07;;
54193;SDS011;40102;50.906;6.972;2023-06-10T07:16:53;5.45;;;4.47;;
54193;SDS011;40102;50.906;6.972;2023-06-10T07:19:18;5.63;;;4.40;;
54193;SDS011;40102;50.906;6.972;2023-06-10T07:21:43;4.68;;;4.20;;
54193;SDS011;40102;50.906;6.972;2023-06-10T07:24:09;5.68;;;4.72;;
54193;SDS011;40102;50.906;6.972;2023-06-10T07:26:34;5.00;;;4.22;;
54193;SDS011;40102;50.906;6.972;2023-06-10T07:28:59;5.18;;;4.35;;
54193;SDS011;40102;50.906;6.972;2023-06-10T07:31:25;5.25;;;4.38;;
54193;SDS011;40102;50.906;6.972;2023-06-10T07:33:50;4.47;;;4.07;;
54193;SDS011;40102;50.906;6.972;2023-06-10T07:36:16;5.22;;;4.70;;
54193;SDS011;40102;50.906;6.972;2023-06-10T07:38:41;4.85;;;4.35;;
54193;SDS011;40102;50.906;6.972;2023-06-10T07:41:07;5.45;;;4.30;;
54193;SDS011;40102;50.906;6.972;2023-06-10T07:43:33;4.78;;;4.18;;
54193;SDS011;40102;50.906;6.972;2023-06-10T07:45:59;5.28;;;4.50;;
54193;SDS011;40102;50.906;6.972;2023-06-10T07:48:25;5.15;;;4.65;;
54193;SDS011;40102;50.906;6.972;2023-06-10T07:50:53;7.28;;;5.30;;
54193;SDS011;40102;50.906;6.972;2023-06-10T07:53:24;4.90;;;4.43;;
54193;SDS011;40102;50.906;6.972;2023-06-10T07:55:49;5.85;;;4.55;;
54193;SDS011;40102;50.906;6.972;2023-06-10T07:58:15;5.38;;;4.75;;
54193;SDS011;40102;50.906;6.972;2023-06-10T08:00:40;7.22;;;5.15;;
54193;SDS011;40102;50.906;6.972;2023-06-10T08:03:05;6.50;;;4.65;;
54193;SDS011;40102;50.906;6.972;2023-06-10T08:05:32;6.75;;;4.40;;
54193;SDS011;40102;50.906;6.972;2023-06-10T08:07:57;7.43;;;5.20;;
54193;SDS011;40102;50.906;6.972;2023-06-10T08:10:22;6.72;;;4.70;;
54193;SDS011;40102;50.906;6.972;2023-06-10T08:12:48;5.65;;;4.47;;
54193;SDS011;40102;50.906;6.972;2023-06-10T08:15:13;6.57;;;4.80;;
54193;SDS011;40102;50.906;6.972;2023-06-10T08:17:38;6.00;;;4.70;;
54193;SDS011;40102;50.906;6.972;2023-06-10T08:20:05;8.27;;;5.10;;
54193;SDS011;40102;50.906;6.972;2023-06-10T08:22:31;7.75;;;5.20;;
54193;SDS011;40102;50.906;6.972;2023-06-10T08:24:56;7.80;;;4.88;;
54193;SDS011;40102;50.906;6.972;2023-06-10T08:27:25;8.23;;;5.28;;
54193;SDS011;40102;50.906;6.972;2023-06-10T08:29:50;7.25;;;5.00;;
54193;SDS011;40102;50.906;6.972;2023-06-10T08:32:15;7.00;;;4.97;;
54193;SDS011;40102;50.906;6.972;2023-06-10T08:34:41;5.82;;;5.10;;
54193;SDS011;40102;50.906;6.972;2023-06-10T08:37:06;6.50;;;5.05;;
54193;SDS011;40102;50.906;6.972;2023-06-10T08:39:31;5.50;;;4.82;;
54193;SDS011;40102;50.906;6.972;2023-06-10T08:44:28;5.82;;;4.82;;
54193;SDS011;40102;50.906;6.972;2023-06-10T08:46:58;7.25;;;4.68;;
54193;SDS011;40102;50.906;6.972;2023-06-10T08:49:25;5.03;;;4.47;;
54193;SDS011;40102;50.906;6.972;2023-06-10T08:51:52;6.50;;;5.00;;
54193;SDS011;40102;50.906;6.972;2023-06-10T08:54:25;6.30;;;5.18;;
54193;SDS011;40102;50.906;6.972;2023-06-10T08:56:52;7.82;;;5.25;;
54193;SDS011;40102;50.906;6.972;2023-06-10T08:59:20;6.20;;;5.13;;
54193;SDS011;40102;50.906;6.972;2023-06-10T09:01:46;5.85;;;4.90;;
54193;SDS011;40102;50.906;6.972;2023-06-10T09:04:12;6.63;;;4.85;;
54193;SDS011;40102;50.906;6.972;2023-06-10T09:06:38;5.82;;;5.10;;
54193;SDS011;40102;50.906;6.972;2023-06-10T09:09:05;5.97;;;4.90;;
54193;SDS011;40102;50.906;6.972;2023-06-10T09:11:32;7.20;;;4.85;;
54193;SDS011;40102;50.906;6.972;2023-06-10T09:13:58;9.98;;;5.30;;
54193;SDS011;40102;50.906;6.972;2023-06-10T09:16:24;7.28;;;5.32;;
54193;SDS011;40102;50.906;6.972;2023-06-10T09:18:50;6.68;;;5.03;;
54193;SDS011;40102;50.906;6.972;2023-06-10T09:21:20;7.40;;;5.25;;
54193;SDS011;40102;50.906;6.972;2023-06-10T09:23:48;8.25;;;5.15;;
54193;SDS011;40102;50.906;6.972;2023-06-10T09:26:14;6.15;;;5.45;;
54193;SDS011;40102;50.906;6.972;2023-06-10T09:28:41;5.78;;;4.88;;
54193;SDS011;40102;50.906;6.972;2023-06-10T09:31:08;5.75;;;4.90;;
54193;SDS011;40102;50.906;6.972;2023-06-10T09:33:37;5.35;;;4.85;;
54193;SDS011;40102;50.906;6.972;2023-06-10T09:36:06;10.50;;;5.38;;
54193;SDS011;40102;50.906;6.972;2023-06-10T09:38:33;5.43;;;4.93;;
54193;SDS011;40102;50.906;6.972;2023-06-10T09:40:59;7.20;;;4.97;;
54193;SDS011;40102;50.906;6.972;2023-06-10T09:43:39;6.35;;;4.80;;
54193;SDS011;40102;50.906;6.972;2023-06-10T09:46:05;6.75;;;5.25;;
54193;SDS011;40102;50.906;6.972;2023-06-10T09:48:34;8.75;;;5.25;;
54193;SDS011;40102;50.906;6.972;2023-06-10T09:51:02;5.97;;;5.22;;
54193;SDS011;40102;50.906;6.972;2023-06-10T09:53:34;7.95;;;5.07;;
54193;SDS011;40102;50.906;6.972;2023-06-10T09:55:59;7.32;;;5.30;;
54193;SDS011;40102;50.906;6.972;2023-06-10T09:58:34;5.95;;;5.25;;
54193;SDS011;40102;50.906;6.972;2023-06-10T10:01:04;6.60;;;5.18;;
54193;SDS011;40102;50.906;6.972;2023-06-10T10:03:30;7.13;;;5.20;;
54193;SDS011;40102;50.906;6.972;2023-06-10T10:06:00;5.57;;;5.00;;
54193;SDS011;40102;50.906;6.972;2023-06-10T10:08:25;8.45;;;5.40;;
54193;SDS011;40102;50.906;6.972;2023-06-10T10:10:51;12.55;;;5.40;;
54193;SDS011;40102;50.906;6.972;2023-06-10T10:13:16;6.60;;;5.00;;
54193;SDS011;40102;50.906;6.972;2023-06-10T10:15:43;6.15;;;5.07;;
54193;SDS011;40102;50.906;6.972;2023-06-10T10:18:10;6.32;;;4.93;;
54193;SDS011;40102;50.906;6.972;2023-06-10T10:20:50;6.93;;;4.97;;
54193;SDS011;40102;50.906;6.972;2023-06-10T10:23:28;7.80;;;5.13;;
54193;SDS011;40102;50.906;6.972;2023-06-10T10:26:00;5.72;;;4.85;;
54193;SDS011;40102;50.906;6.972;2023-06-10T10:31:00;8.75;;;5.70;;
54193;SDS011;40102;50.906;6.972;2023-06-10T10:33:34;6.47;;;5.32;;
54193;SDS011;40102;50.906;6.972;2023-06-10T10:36:01;5.35;;;4.85;;
54193;SDS011;40102;50.906;6.972;2023-06-10T10:38:26;6.32;;;4.90;;
54193;SDS011;40102;50.906;6.972;2023-06-10T10:40:53;6.25;;;4.82;;
54193;SDS011;40102;50.906;6.972;2023-06-10T10:43:20;6.60;;;4.97;;
54193;SDS011;40102;50.906;6.972;2023-06-10T10:45:46;7.68;;;5.18;;
54193;SDS011;40102;50.906;6.972;2023-06-10T10:48:24;8.02;;;5.38;;
54193;SDS011;40102;50.906;6.972;2023-06-10T10:50:56;10.02;;;5.30;;
54193;SDS011;40102;50.906;6.972;2023-06-10T10:53:22;5.65;;;4.93;;
54193;SDS011;40102;50.906;6.972;2023-06-10T10:56:07;5.97;;;5.03;;
54193;SDS011;40102;50.906;6.972;2023-06-10T10:58:38;5.45;;;4.68;;
54193;SDS011;40102;50.906;6.972;2023-06-10T11:01:10;6.85;;;4.80;;
54193;SDS011;40102;50.906;6.972;2023-06-10T11:03:41;8.63;;;4.93;;
54193;SDS011;40102;50.906;6.972;2023-06-10T11:06:13;5.38;;;4.70;;
54193;SDS011;40102;50.906;6.972;2023-06-10T11:14:14;6.03;;;4.43;;
54193;SDS011;40102;50.906;6.972;2023-06-10T11:16:57;6.97;;;4.97;;
54193;SDS011;40102;50.906;6.972;2023-06-10T11:19:33;5.30;;;4.55;;
54193;SDS011;40102;50.906;6.972;2023-06-10T11:22:04;7.50;;;4.47;;
54193;SDS011;40102;50.906;6.972;2023-06-10T11:24:33;6.05;;;4.72;;
54193;SDS011;40102;50.906;6.972;2023-06-10T11:32:31;7.47;;;4.85;;
54193;SDS011;40102;50.906;6.972;2023-06-10T11:34:58;5.50;;;4.50;;
54193;SDS011;40102;50.906;6.972;2023-06-10T11:37:24;5.55;;;4.47;;
54193;SDS011;40102;50.906;6.972;2023-06-10T11:39:53;5.50;;;4.72;;
54193;SDS011;40102;50.906;6.972;2023-06-10T11:42:19;7.32;;;4.35;;
54193;SDS011;40102;50.906;6.972;2023-06-10T11:44:48;5.38;;;4.53;;
54193;SDS011;40102;50.906;6.972;2023-06-10T11:47:18;6.30;;;4.45;;
54193;SDS011;40102;50.906;6.972;2023-06-10T11:49:45;6.53;;;4.78;;
54193;SDS011;40102;50.906;6.972;2023-06-10T11:52:11;7.93;;;4.30;;
54193;SDS011;40102;50.906;6.972;2023-06-10T11:54:37;4.32;;;3.92;;
54193;SDS011;40102;50.906;6.972;2023-06-10T11:57:03;5.88;;;4.10;;
54193;SDS011;40102;50.906;6.972;2023-06-10T11:59:30;7.85;;;4.50;;
54193;SDS011;40102;50.906;6.972;2023-06-10T12:01:55;7.65;;;4.28;;
54193;SDS011;40102;50.906;6.972;2023-06-10T12:04:21;6.35;;;4.28;;
54193;SDS011;40102;50.906;6.972;2023-06-10T12:06:50;4.80;;;4.20;;
54193;SDS011;40102;50.906;6.972;2023-06-10T12:09:24;6.28;;;4.50;;
54193;SDS011;40102;50.906;6.972;2023-06-10T12:11:58;8.05;;;4.47;;
54193;SDS011;40102;50.906;6.972;2023-06-10T12:17:14;6.28;;;4.30;;
54193;SDS011;40102;50.906;6.972;2023-06-10T12:19:40;6.30;;;4.47;;
54193;SDS011;40102;50.906;6.972;2023-06-10T12:22:05;4.70;;;4.20;;
54193;SDS011;40102;50.906;6.972;2023-06-10T12:24:31;6.50;;;4.40;;
54193;SDS011;40102;50.906;6.972;2023-06-10T12:26:56;7.28;;;4.50;;
54193;SDS011;40102;50.906;6.972;2023-06-10T12:29:22;5.35;;;4.35;;
54193;SDS011;40102;50.906;6.972;2023-06-10T12:32:02;5.35;;;4.28;;
54193;SDS011;40102;50.906;6.972;2023-06-10T12:34:37;5.90;;;4.40;;
54193;SDS011;40102;50.906;6.972;2023-06-10T12:37:05;5.57;;;4.10;;
54193;SDS011;40102;50.906;6.972;2023-06-10T12:39:31;5.65;;;4.07;;
54193;SDS011;40102;50.906;6.972;2023-06-10T12:42:12;6.43;;;3.92;;
54193;SDS011;40102;50.906;6.972;2023-06-10T12:44:40;4.65;;;3.85;;
54193;SDS011;40102;50.906;6.972;2023-06-10T12:47:10;8.05;;;3.70;;
54193;SDS011;40102;50.906;6.972;2023-06-10T12:49:37;5.35;;;4.20;;
54193;SDS011;40102;50.906;6.972;2023-06-10T12:52:03;9.80;;;4.35;;
54193;SDS011;40102;50.906;6.972;2023-06-10T12:54:52;5.78;;;4.15;;
54193;SDS011;40102;50.906;6.972;2023-06-10T12:59:44;4.77;;;3.70;;
54193;SDS011;40102;50.906;6.972;2023-06-10T13:02:15;5.45;;;3.85;;
54193;SDS011;40102;50.906;6.972;2023-06-10T13:04:43;4.05;;;3.65;;
54193;SDS011;40102;50.906;6.972;2023-06-10T13:07:08;5.32;;;3.85;;
54193;SDS011;40102;50.906;6.972;2023-06-10T13:09:35;8.88;;;3.60;;
54193;SDS011;40102;50.906;6.972;2023-06-10T13:12:01;7.18;;;3.90;;
54193;SDS011;40102;50.906;6.972;2023-06-10T13:14:26;4.22;;;3.47;;
54193;SDS011;40102;50.906;6.972;2023-06-10T13:16:59;4.30;;;3.70;;
54193;SDS011;40102;50.906;6.972;2023-06-10T13:19:27;4.45;;;3.58;;
54193;SDS011;40102;50.906;6.972;2023-06-10T13:21:53;6.35;;;3.88;;
54193;SDS011;40102;50.906;6.972;2023-06-10T13:24:21;5.25;;;3.78;;
54193;SDS011;40102;50.906;6.972;2023-06-10T13:26:46;5.18;;;3.80;;
54193;SDS011;40102;50.906;6.972;2023-06-10T13:29:14;4.28;;;3.47;;
54193;SDS011;40102;50.906;6.972;2023-06-10T13:31:40;4.38;;;3.65;;
54193;SDS011;40102;50.906;6.972;2023-06-10T13:34:13;4.72;;;3.55;;
54193;SDS011;40102;50.906;6.972;2023-06-10T13:36:39;6.85;;;4.05;;
54193;SDS011;40102;50.906;6.972;2023-06-10T13:39:04;6.57;;;3.97;;
54193;SDS011;40102;50.906;6.972;2023-06-10T13:41:30;6.03;;;3.80;;
54193;SDS011;40102;50.906;6.972;2023-06-10T13:43:55;4.07;;;3.67;;
54193;SDS011;40102;50.906;6.972;2023-06-10T13:46:21;7.30;;;3.88;;
54193;SDS011;40102;50.906;6.972;2023-06-10T13:48:49;5.53;;;3.70;;
54193;SDS011;40102;50.906;6.972;2023-06-10T13:51:14;8.07;;;3.72;;
54193;SDS011;40102;50.906;6.972;2023-06-10T13:53:42;5.30;;;3.40;;
54193;SDS011;40102;50.906;6.972;2023-06-10T13:56:08;5.30;;;3.90;;
54193;SDS011;40102;50.906;6.972;2023-06-10T13:58:33;5.72;;;3.60;;
54193;SDS011;40102;50.906;6.972;2023-06-10T14:01:03;6.75;;;3.58;;
54193;SDS011;40102;50.906;6.972;2023-06-10T14:03:29;3.72;;;3.30;;
54193;SDS011;40102;50.906;6.972;2023-06-10T14:05:57;4.63;;;3.60;;
54193;SDS011;40102;50.906;6.972;2023-06-10T14:08:23;3.72;;;3.20;;
54193;SDS011;40102;50.906;6.972;2023-06-10T14:10:51;4.28;;;3.50;;
54193;SDS011;40102;50.906;6.972;2023-06-10T14:13:17;5.13;;;3.22;;
54193;SDS011;40102;50.906;6.972;2023-06-10T14:15:42;8.70;;;3.70;;
54193;SDS011;40102;50.906;6.972;2023-06-10T14:18:08;5.68;;;3.38;;
54193;SDS011;40102;50.906;6.972;2023-06-10T14:20:33;4.60;;;3.63;;
54193;SDS011;40102;50.906;6.972;2023-06-10T14:22:58;6.10;;;3.30;;
54193;SDS011;40102;50.906;6.972;2023-06-10T14:25:24;5.22;;;3.80;;
54193;SDS011;40102;50.906;6.972;2023-06-10T14:27:50;4.80;;;3.78;;
54193;SDS011;40102;50.906;6.972;2023-06-10T14:30:15;5.57;;;3.40;;
54193;SDS011;40102;50.906;6.972;2023-06-10T14:32:40;5.60;;;3.40;;
54193;SDS011;40102;50.906;6.972;2023-06-10T14:35:06;6.60;;;3.70;;
54193;SDS011;40102;50.906;6.972;2023-06-10T14:37:32;4.97;;;3.40;;
54193;SDS011;40102;50.906;6.972;2023-06-10T14:39:57;5.55;;;3.97;;
54193;SDS011;40102;50.906;6.972;2023-06-10T14:42:22;6.07;;;3.10;;
54193;SDS011;40102;50.906;6.972;2023-06-10T14:44:48;4.32;;;3.60;;
54193;SDS011;40102;50.906;6.972;2023-06-10T14:47:14;5.45;;;3.60;;
54193;SDS011;40102;50.906;6.972;2023-06-10T14:49:40;7.35;;;3.70;;
54193;SDS011;40102;50.906;6.972;2023-06-10T14:52:07;4.28;;;3.63;;
54193;SDS011;40102;50.906;6.972;2023-06-10T14:54:33;5.95;;;3.42;;
54193;SDS011;40102;50.906;6.972;2023-06-10T14:56:58;5.28;;;3.60;;
54193;SDS011;40102;50.906;6.972;2023-06-10T14:59:24;4.78;;;3.70;;
54193;SDS011;40102;50.906;6.972;2023-06-10T15:01:49;6.25;;;3.60;;
54193;SDS011;40102;50.906;6.972;2023-06-10T15:04:15;5.38;;;3.70;;
54193;SDS011;40102;50.906;6.972;2023-06-10T15:06:40;6.53;;;4.10;;
54193;SDS011;40102;50.906;6.972;2023-06-10T15:09:06;4.85;;;3.45;;